Terminal Aerodrome Forecast
Issued by NWS

Home | Current Version | Previous Version | Text Only | Print | Product List | Glossary On
Versions: 1 2 3 4 5 6 7 8 9 10 11 12 13 14 15 16 17 18 19 20 21 22 23 24 25 26 27 28 29 30 31
015
FTAK31 PANC 310542
TAFAAQ
TAF
PAAQ 310542Z 3106/0106 14011KT P6SM OVC050
     FM311300 08006KT P6SM BKN060
     FM010300 16011KT P6SM BKN060=

USA.gov is the U.S. government's official web portal to all federal, state and local government web resources and services.